Lankin, North Dakota
Current Conditions -  °F | °C
As of 8:55 PM on Friday 21 Nov 2014 (Local Time) from KGAF Reporting Station
Clear Clear  
Wind Chill: 29°   Ceiling: Unl
Heat Index: 37°   Visibility: 10mi
Dew Point: 28°   Wind: 14mph
Humidity: 70%   Direction: 250°WSW
Pressure: 29.56"   Gusts: NA
Location:  48.31°N, 97.93°W
Report Text: KGAF 220255Z AUTO 25012KT 10SM CLR 03/M02 A2956 RMK AO2
Loading
Personal Weather Stations






























Interactive Weather Map New forecast layout! Learn more

10-Day Weather Forecast

Advertisements
Track Severe Weather on mobile